aviador You're here:

KSAV Decoded Metar

SAVANNAH in GA, USA
Report Time2017-09-24 22:53:00
UTC Time2017-09-24 23:05:23
Flight Rules vfr VFR
Wind050° at 08 kt
W.Decomp.*RWY 10: 5.8 kt HW 5.6 kt LCW
RWY 01: 5.6 kt HW 5.8 kt RCW
W.Rank050° ranks 25
Current wind is above 050° avg. (7.0)
Visibility9999 m
Phenomena:N/A
Clouds:Few 050 Hf
Broken 250 Hf
Expected CloudBase > 2,800 ft AGL from Temp-Dew spread
Ceiling25,000 ft
Temp27°C (ISA +12)
Dew Point20°C (66% RH)
Heat Index28.5°C
QNH1014 hPa
Density Alt1,716 ft
Elevation46 ft
Report Wrong Elevation
Raw Report
KSAV 242253Z 05008KT 10SM FEW050 BKN250 27/20 A2995 RMK AO2 SLP141
T02720200=

Extra information for KSAV:More info

Metar Taf Metar & Taf Last 4 Metars F.Rules Stats Wind Profile Meteogram Temp Stats Airport Information Weather charts Add Link Nearby VenuesMetar ALERT Operation Metar Decoded Social comments

AIRNAV info for KSAV